createdAt,value
2018-10-05T00:00:37.098Z,41.5399
2018-10-05T00:01:42.009Z,40.7868
2018-10-05T00:02:47.455Z,40.1183
2018-10-05T00:03:52.886Z,40.5358
2018-10-05T00:04:58.141Z,42.0393
2018-10-05T00:06:02.731Z,42.7078
2018-10-05T00:07:08.378Z,41.2889
2018-10-05T00:08:13.314Z,41.2889
2018-10-05T00:09:18.776Z,42.0393
2018-10-05T00:10:24.239Z,41.5399
2018-10-05T00:11:29.734Z,41.7883
2018-10-05T00:12:35.540Z,42.0393
2018-10-05T00:13:40.450Z,41.7883
2018-10-05T00:14:45.604Z,42.2903
2018-10-05T00:15:51.007Z,41.5399
2018-10-05T00:16:56.459Z,41.7883
2018-10-05T00:18:01.987Z,42.2903
2018-10-05T00:19:07.601Z,41.7883
2018-10-05T00:20:13.047Z,41.7883
2018-10-05T00:21:18.076Z,41.5399
2018-10-05T00:22:23.467Z,42.2903
2018-10-05T00:23:28.924Z,42.0393
2018-10-05T00:24:34.623Z,42.7078
2018-10-05T00:25:39.488Z,43.2098
2018-10-05T00:26:44.924Z,43.2098
2018-10-05T00:27:50.257Z,43.7119
2018-10-05T00:28:55.398Z,42.4568
2018-10-05T00:30:00.838Z,43.2098
2018-10-05T00:31:06.558Z,43.2098
2018-10-05T00:32:11.734Z,43.2098
2018-10-05T00:33:17.304Z,43.9629
2018-10-05T00:34:23.088Z,43.7119
2018-10-05T00:35:28.257Z,44.3804
2018-10-05T00:36:34.086Z,43.9629
2018-10-05T00:37:39.561Z,43.7119
2018-10-05T00:38:45.098Z,43.7119
2018-10-05T00:39:50.931Z,44.1294
2018-10-05T00:40:55.795Z,44.1294
2018-10-05T00:42:01.227Z,44.3804
2018-10-05T00:43:07.268Z,43.9629
2018-10-05T00:44:12.411Z,44.1294
2018-10-05T00:45:17.552Z,43.9629
2018-10-05T00:46:22.984Z,44.1294
2018-10-05T00:47:27.883Z,44.3804
2018-10-05T00:48:33.524Z,43.9629
2018-10-05T00:49:39.063Z,44.3804
2018-10-05T00:50:44.212Z,44.3804
2018-10-05T00:51:50.985Z,45.0489
2018-10-05T00:52:56.561Z,44.7979
2018-10-05T00:54:02.034Z,45.802
2018-10-05T00:55:07.024Z,45.802
2018-10-05T00:56:12.452Z,45.802
2018-10-05T00:57:17.684Z,45.802
2018-10-05T00:58:23.446Z,46.053
2018-10-05T00:59:28.458Z,45.5509
2018-10-05T01:00:34.506Z,46.304
2018-10-05T01:01:39.474Z,45.5509
2018-10-05T01:02:45.010Z,45.0489
2018-10-05T01:03:50.565Z,46.304
2018-10-05T01:04:56.042Z,45.0489
2018-10-05T01:06:01.234Z,45.802
2018-10-05T01:07:06.586Z,46.053
2018-10-05T01:08:11.764Z,45.0489
2018-10-05T01:09:16.966Z,45.802
2018-10-05T01:10:22.053Z,45.802
2018-10-05T01:11:27.075Z,46.806
2018-10-05T01:12:32.657Z,46.304
2018-10-05T01:13:37.564Z,46.053
2018-10-05T01:14:43.048Z,46.053
2018-10-05T01:15:48.788Z,46.555
2018-10-05T01:16:53.697Z,46.304
2018-10-05T01:17:59.127Z,47.3081
2018-10-05T01:19:04.408Z,46.304
2018-10-05T01:20:09.872Z,46.053
2018-10-05T01:21:15.038Z,46.304
2018-10-05T01:22:20.648Z,46.555
2018-10-05T01:23:25.243Z,46.304
2018-10-05T01:24:31.261Z,46.053
2018-10-05T01:25:36.714Z,46.053
2018-10-05T01:26:41.886Z,46.304
2018-10-05T01:27:47.469Z,46.304
2018-10-05T01:28:52.338Z,46.555
2018-10-05T01:29:57.206Z,46.053
2018-10-05T01:31:03.434Z,47.0571
2018-10-05T01:32:08.900Z,47.3081
2018-10-05T01:33:14.162Z,47.7256
2018-10-05T01:34:19.985Z,47.3081
2018-10-05T01:35:24.850Z,47.0571
2018-10-05T01:36:30.330Z,46.806
2018-10-05T01:37:35.525Z,47.4745
2018-10-05T01:38:41.087Z,47.3081
2018-10-05T01:39:46.803Z,47.3081
2018-10-05T01:40:52.267Z,47.3081
2018-10-05T01:41:57.703Z,47.4745
2018-10-05T01:43:03.270Z,47.9766
2018-10-05T01:44:08.505Z,48.2276
2018-10-05T01:45:13.662Z,48.2276
2018-10-05T01:46:19.314Z,47.9766
2018-10-05T01:47:24.755Z,48.7296
2018-10-05T01:48:30.325Z,47.9766
2018-10-05T01:49:35.181Z,48.4786
2018-10-05T01:50:40.394Z,49.229
2018-10-05T01:51:45.998Z,48.978
2018-10-05T01:52:51.211Z,48.4786
2018-10-05T01:53:56.448Z,49.4801
2018-10-05T01:55:02.260Z,49.9821
2018-10-05T01:56:06.950Z,48.978
2018-10-05T01:57:12.233Z,49.229
2018-10-05T01:58:17.684Z,49.4801
2018-10-05T01:59:22.650Z,49.7311
2018-10-05T02:00:28.446Z,49.229
2018-10-05T02:01:33.880Z,49.4801
2018-10-05T02:02:39.616Z,48.4786
2018-10-05T02:03:45.677Z,49.9821
2018-10-05T02:04:50.576Z,50.4022
2018-10-05T02:05:55.791Z,50.4022
2018-10-05T02:07:01.228Z,50.9043
2018-10-05T02:08:06.668Z,49.9821
2018-10-05T02:09:11.886Z,49.9821
2018-10-05T02:10:17.568Z,50.9043
2018-10-05T02:11:23.005Z,50.9043
2018-10-05T02:12:42.927Z,50.1512
2018-10-05T02:13:48.365Z,50.1512
2018-10-05T02:14:53.525Z,50.1512
2018-10-05T02:15:59.370Z,50.1512
2018-10-05T02:17:04.650Z,50.6533
2018-10-05T02:18:10.192Z,51.4063
2018-10-05T02:19:15.635Z,50.9043
2018-10-05T02:20:20.847Z,50.9043
2018-10-05T02:21:25.621Z,50.9043
2018-10-05T02:22:31.186Z,51.4063
2018-10-05T02:23:36.375Z,51.1527
2018-10-05T02:24:42.058Z,51.6573
2018-10-05T02:25:46.370Z,51.9084
2018-10-05T02:26:51.799Z,51.1527
2018-10-05T02:27:57.215Z,51.1527
2018-10-05T02:29:02.446Z,51.1527
2018-10-05T02:30:07.878Z,52.5769
2018-10-05T02:31:13.283Z,52.8279
2018-10-05T02:32:18.511Z,52.4078
2018-10-05T02:33:23.966Z,52.8279
2018-10-05T02:34:29.894Z,52.4078
2018-10-05T02:35:35.053Z,53.3299
2018-10-05T02:36:41.178Z,52.8279
2018-10-05T02:37:46.327Z,53.3299
2018-10-05T02:38:51.035Z,53.832
2018-10-05T02:39:56.468Z,54.083
2018-10-05T02:41:01.914Z,53.3299
2018-10-05T02:42:06.784Z,53.3299
2018-10-05T02:43:12.178Z,53.3299
2018-10-05T02:44:17.339Z,54.334
2018-10-05T02:45:22.525Z,54.334
2018-10-05T02:46:28.305Z,53.3299
2018-10-05T02:47:33.501Z,54.083
2018-10-05T02:48:39.206Z,53.832
2018-10-05T02:49:44.697Z,54.585
2018-10-05T02:50:49.843Z,54.083
2018-10-05T02:51:55.561Z,54.585
2018-10-05T02:53:00.811Z,55.5046
2018-10-05T02:54:06.263Z,54.334
2018-10-05T02:55:12.120Z,54.334
2018-10-05T02:56:17.578Z,55.3381
2018-10-05T02:57:22.721Z,54.083
2018-10-05T02:58:28.708Z,54.334
2018-10-05T02:59:33.846Z,54.836
2018-10-05T03:00:39.044Z,54.836
2018-10-05T03:01:43.948Z,54.585
2018-10-05T03:02:49.207Z,54.083
2018-10-05T03:03:55.182Z,53.5809
2018-10-05T03:05:00.618Z,54.585
2018-10-05T03:06:05.244Z,54.836
2018-10-05T03:07:10.646Z,54.836
2018-10-05T03:08:16.118Z,54.836
2018-10-05T03:09:21.277Z,54.836
2018-10-05T03:10:26.843Z,54.836
2018-10-05T03:11:32.340Z,54.334
2018-10-05T03:12:37.825Z,54.585
2018-10-05T03:13:43.284Z,55.0871
2018-10-05T03:14:48.506Z,54.585
2018-10-05T03:15:54.205Z,54.585
2018-10-05T03:16:59.400Z,54.585
2018-10-05T03:18:03.988Z,55.3381
2018-10-05T03:19:08.929Z,55.3381
2018-10-05T03:20:14.363Z,54.334
2018-10-05T03:21:19.814Z,55.0871
2018-10-05T03:22:25.350Z,54.836
2018-10-05T03:23:30.491Z,54.334
2018-10-05T03:24:35.926Z,55.0871
2018-10-05T03:25:41.416Z,55.5046
2018-10-05T03:26:46.297Z,55.0871
2018-10-05T03:27:51.833Z,54.585
2018-10-05T03:28:57.015Z,54.836
2018-10-05T03:30:01.883Z,54.585
2018-10-05T03:31:06.833Z,54.836
2018-10-05T03:32:12.261Z,54.585
2018-10-05T03:33:17.498Z,54.585
2018-10-05T03:34:23.190Z,55.0871
2018-10-05T03:35:28.366Z,55.7556
2018-10-05T03:36:33.841Z,55.0871
2018-10-05T03:37:38.722Z,55.5891
2018-10-05T03:38:43.577Z,56.1757
2018-10-05T03:39:48.777Z,56.6777
2018-10-05T03:40:53.728Z,55.5891
2018-10-05T03:41:59.157Z,56.4267
2018-10-05T03:43:04.592Z,56.1757
2018-10-05T03:44:09.921Z,56.1757
2018-10-05T03:45:14.803Z,55.5891
2018-10-05T03:46:19.641Z,56.4267
2018-10-05T03:47:24.952Z,56.1757
2018-10-05T03:48:30.492Z,56.6777
2018-10-05T03:49:35.679Z,55.7556
2018-10-05T03:50:41.147Z,56.6777
2018-10-05T03:51:46.736Z,56.4267
2018-10-05T03:52:51.950Z,56.4267
2018-10-05T03:53:57.376Z,57.4308
2018-10-05T03:55:03.161Z,56.9288
2018-10-05T03:56:08.087Z,57.1798
2018-10-05T03:57:13.439Z,56.9288
2018-10-05T03:58:19.217Z,57.1798
2018-10-05T03:59:24.400Z,57.4308
2018-10-05T04:00:29.879Z,57.1798
2018-10-05T04:01:34.756Z,57.1798
2018-10-05T04:02:39.948Z,57.1798
2018-10-05T04:03:45.524Z,57.1798
2018-10-05T04:04:50.392Z,57.9328
2018-10-05T04:05:55.328Z,56.6777
2018-10-05T04:07:00.226Z,57.6818
2018-10-05T04:08:05.667Z,56.9288
2018-10-05T04:09:11.153Z,57.6818
2018-10-05T04:10:16.697Z,57.6818
2018-10-05T04:11:21.077Z,57.4308
2018-10-05T04:12:26.508Z,57.6818
2018-10-05T04:13:32.644Z,56.6777
2018-10-05T04:14:37.810Z,57.4308
2018-10-05T04:15:43.695Z,57.6818
2018-10-05T04:16:49.157Z,57.6818
2018-10-05T04:17:54.324Z,57.1798
2018-10-05T04:18:59.957Z,57.4308
2018-10-05T04:20:04.640Z,57.4308
2018-10-05T04:21:09.532Z,57.4308
2018-10-05T04:22:15.284Z,57.6818
2018-10-05T04:23:20.799Z,57.0107
2018-10-05T04:24:25.671Z,57.4308
2018-10-05T04:25:31.427Z,57.0107
2018-10-05T04:26:36.287Z,57.0107
2018-10-05T04:27:41.892Z,58.4349
2018-10-05T04:28:47.033Z,57.2617
2018-10-05T04:29:52.822Z,57.0107
2018-10-05T04:30:58.506Z,57.9328
2018-10-05T04:32:03.673Z,57.2617
2018-10-05T04:33:09.210Z,57.5127
2018-10-05T04:34:14.040Z,57.9328
2018-10-05T04:35:18.911Z,58.4349
2018-10-05T04:36:24.062Z,57.7637
2018-10-05T04:37:29.209Z,58.1839
2018-10-05T04:38:34.670Z,58.1839
2018-10-05T04:39:40.405Z,57.7637
2018-10-05T04:40:45.584Z,58.6859
2018-10-05T04:41:50.725Z,58.9369
2018-10-05T04:42:56.006Z,59.439
2018-10-05T04:44:01.157Z,59.188
2018-10-05T04:45:06.597Z,59.439
2018-10-05T04:46:12.060Z,58.2684
2018-10-05T04:47:17.487Z,58.5168
2018-10-05T04:48:22.926Z,59.439
2018-10-05T04:49:28.458Z,58.6859
2018-10-05T04:50:33.582Z,58.9369
2018-10-05T04:51:38.987Z,58.6859
2018-10-05T04:52:44.306Z,59.188
2018-10-05T04:53:49.471Z,58.6859
2018-10-05T04:54:54.506Z,58.9369
2018-10-05T04:55:59.687Z,58.2684
2018-10-05T04:57:05.123Z,58.7705
2018-10-05T04:58:09.975Z,58.7705
2018-10-05T04:59:15.413Z,59.188
2018-10-05T05:00:20.846Z,59.188
2018-10-05T05:01:26.661Z,58.7705
2018-10-05T05:02:31.564Z,58.9369
2018-10-05T05:03:37.243Z,58.5168
2018-10-05T05:04:42.279Z,59.439
2018-10-05T05:05:47.760Z,59.188
2018-10-05T05:06:52.871Z,59.0215
2018-10-05T05:07:58.320Z,58.7705
2018-10-05T05:09:02.906Z,59.188
2018-10-05T05:10:07.754Z,60.192
2018-10-05T05:11:13.506Z,58.7705
2018-10-05T05:12:19.475Z,58.7705
2018-10-05T05:13:25.072Z,58.2684
2018-10-05T05:14:30.276Z,58.5168
2018-10-05T05:15:35.186Z,59.0215
2018-10-05T05:16:40.049Z,58.2684
2018-10-05T05:17:44.642Z,58.5168
2018-10-05T05:18:50.471Z,58.5168
2018-10-05T05:19:55.903Z,57.5127
2018-10-05T05:21:01.038Z,57.7637
2018-10-05T05:22:06.449Z,58.2684
2018-10-05T05:23:11.653Z,58.5168
2018-10-05T05:24:16.852Z,58.0148
2018-10-05T05:25:22.636Z,58.5168
2018-10-05T05:26:28.066Z,58.7705
2018-10-05T05:27:34.015Z,59.0215
2018-10-05T05:28:39.466Z,59.69
2018-10-05T05:29:44.682Z,59.439
2018-10-05T05:30:49.845Z,59.69
2018-10-05T05:31:54.987Z,59.2725
2018-10-05T05:33:00.200Z,59.0215
2018-10-05T05:34:06.395Z,59.2725
2018-10-05T05:35:11.987Z,59.2725
2018-10-05T05:36:17.148Z,60.4431
2018-10-05T05:37:22.938Z,59.0215
2018-10-05T05:38:28.197Z,58.7705
2018-10-05T05:39:33.715Z,58.7705
2018-10-05T05:40:39.143Z,59.0215
2018-10-05T05:41:43.801Z,59.0215
2018-10-05T05:42:49.215Z,58.7705
2018-10-05T05:43:54.676Z,59.2725
2018-10-05T05:45:00.362Z,59.2725
2018-10-05T05:46:05.201Z,59.5235
2018-10-05T05:47:10.709Z,59.0215
2018-10-05T05:48:15.574Z,59.941
2018-10-05T05:49:21.000Z,59.5235
2018-10-05T05:50:25.968Z,59.5235
2018-10-05T05:51:31.699Z,59.941
2018-10-05T05:52:36.845Z,59.5235
2018-10-05T05:53:41.434Z,59.7745
2018-10-05T05:54:46.894Z,58.7705
2018-10-05T05:55:52.070Z,59.0215
2018-10-05T05:56:57.497Z,59.941
2018-10-05T05:58:02.545Z,59.2725
2018-10-05T05:59:08.055Z,59.2725
2018-10-05T06:00:13.216Z,59.941
2018-10-05T06:01:18.722Z,59.5235
2018-10-05T06:02:24.267Z,59.7745
2018-10-05T06:03:29.710Z,59.5235
2018-10-05T06:04:34.930Z,59.7745
2018-10-05T06:05:40.402Z,60.192
2018-10-05T06:06:45.806Z,59.941
2018-10-05T06:07:50.697Z,59.5235
2018-10-05T06:08:56.039Z,59.7745
2018-10-05T06:10:01.858Z,59.941
2018-10-05T06:11:06.727Z,60.192
2018-10-05T06:12:11.922Z,60.192
2018-10-05T06:13:17.316Z,60.4431
2018-10-05T06:14:22.797Z,60.4431
2018-10-05T06:15:28.731Z,59.941
2018-10-05T06:16:34.784Z,60.6941
2018-10-05T06:17:39.959Z,61.1961
2018-10-05T06:18:45.639Z,60.9451
2018-10-05T06:19:50.885Z,60.9451
2018-10-05T06:20:55.758Z,60.9451
2018-10-05T06:22:01.999Z,60.4431
2018-10-05T06:23:06.156Z,60.4431
2018-10-05T06:24:11.646Z,60.4431
2018-10-05T06:25:16.752Z,60.192
2018-10-05T06:26:22.183Z,60.4431
2018-10-05T06:27:28.728Z,60.9451
2018-10-05T06:28:34.333Z,60.9451
2018-10-05T06:29:39.218Z,60.4431
2018-10-05T06:30:45.510Z,61.1961
2018-10-05T06:31:50.801Z,60.4431
2018-10-05T06:32:56.251Z,61.1961
2018-10-05T06:34:01.759Z,60.6941
2018-10-05T06:35:06.899Z,61.1961
2018-10-05T06:36:12.084Z,61.1961
2018-10-05T06:37:17.721Z,61.7008
2018-10-05T06:38:23.300Z,60.6941
2018-10-05T06:39:29.285Z,60.9451
2018-10-05T06:40:34.885Z,60.6941
2018-10-05T06:41:39.744Z,60.6941
2018-10-05T06:42:45.251Z,60.6941
2018-10-05T06:43:50.465Z,60.4431
2018-10-05T06:44:55.910Z,60.6941
2018-10-05T06:46:01.232Z,60.4431
2018-10-05T06:47:06.680Z,60.192
2018-10-05T06:48:11.673Z,60.0256
2018-10-05T06:49:17.396Z,60.0256
2018-10-05T06:50:22.571Z,60.6941
2018-10-05T06:51:28.171Z,59.7745
2018-10-05T06:52:33.038Z,59.5235
2018-10-05T06:53:38.194Z,59.2725
2018-10-05T06:54:43.975Z,60.0256
2018-10-05T06:55:49.148Z,59.5235
2018-10-05T06:56:54.600Z,60.192
2018-10-05T06:57:59.828Z,59.7745
2018-10-05T06:59:05.010Z,60.192
2018-10-05T07:00:10.493Z,59.5235
2018-10-05T07:01:16.134Z,59.7745
2018-10-05T07:02:21.558Z,59.7745
2018-10-05T07:03:41.526Z,60.0256
2018-10-05T07:04:46.704Z,60.4431
2018-10-05T07:05:51.571Z,60.192
2018-10-05T07:06:57.452Z,58.7705
2018-10-05T07:08:03.285Z,59.2725
2018-10-05T07:09:08.722Z,59.0215
2018-10-05T07:10:14.497Z,59.5235
2018-10-05T07:11:19.420Z,59.5235
2018-10-05T07:12:25.666Z,59.7745
2018-10-05T07:13:30.544Z,59.5235
2018-10-05T07:14:35.706Z,60.0256
2018-10-05T07:15:41.488Z,59.5235
2018-10-05T07:16:46.816Z,59.7745
2018-10-05T07:17:52.318Z,60.192
2018-10-05T07:18:58.101Z,59.2725
2018-10-05T07:20:03.619Z,59.5235
2018-10-05T07:21:08.367Z,59.5235
2018-10-05T07:22:13.985Z,59.7745
2018-10-05T07:23:18.990Z,59.5235
2018-10-05T07:24:24.151Z,60.192
2018-10-05T07:25:29.865Z,60.0256
2018-10-05T07:26:35.114Z,59.7745
2018-10-05T07:27:40.417Z,59.7745
2018-10-05T07:28:46.007Z,60.0256
2018-10-05T07:29:51.042Z,60.2766
2018-10-05T07:30:56.256Z,60.4431
2018-10-05T07:32:01.402Z,60.192
2018-10-05T07:33:06.835Z,60.6941
2018-10-05T07:34:12.261Z,60.192
2018-10-05T07:35:16.841Z,60.4431
2018-10-05T07:36:21.991Z,60.192
2018-10-05T07:37:27.499Z,61.1961
2018-10-05T07:38:33.172Z,61.4498
2018-10-05T07:39:38.789Z,62.3693
2018-10-05T07:40:44.311Z,60.192
2018-10-05T07:41:49.179Z,60.9451
2018-10-05T07:42:54.833Z,61.1961
2018-10-05T07:44:00.067Z,61.1961
2018-10-05T07:45:04.953Z,60.9451
2018-10-05T07:46:10.092Z,62.3693
2018-10-05T07:47:15.521Z,61.4498
2018-10-05T07:48:20.660Z,62.1183
2018-10-05T07:49:25.544Z,61.1961
2018-10-05T07:50:29.899Z,61.1961
2018-10-05T07:51:35.247Z,62.1183
2018-10-05T07:52:40.141Z,61.4498
2018-10-05T07:53:45.637Z,61.4498
2018-10-05T07:54:51.226Z,62.3693
2018-10-05T07:55:56.377Z,61.7008
2018-10-05T07:57:01.769Z,61.4498
2018-10-05T07:58:07.467Z,62.3693
2018-10-05T07:59:12.894Z,61.4498
2018-10-05T08:00:17.796Z,62.1183
2018-10-05T08:01:22.922Z,62.1183
2018-10-05T08:02:28.412Z,62.1183
2018-10-05T08:03:33.295Z,62.1183
2018-10-05T08:04:38.442Z,62.6203
2018-10-05T08:05:43.687Z,61.4498
2018-10-05T08:06:49.086Z,62.1183
2018-10-05T08:07:53.979Z,63.0405
2018-10-05T08:08:58.862Z,62.8713
2018-10-05T08:10:04.264Z,63.0405
2018-10-05T08:11:09.438Z,62.8713
2018-10-05T08:12:14.623Z,63.0405
2018-10-05T08:13:20.465Z,63.5425
2018-10-05T08:14:25.640Z,62.7894
2018-10-05T08:15:31.260Z,63.0405
2018-10-05T08:16:36.178Z,62.8713
2018-10-05T08:17:41.393Z,63.2915
2018-10-05T08:18:47.192Z,63.2915
2018-10-05T08:19:52.448Z,63.2915
2018-10-05T08:20:57.382Z,63.7935
2018-10-05T08:22:03.044Z,63.0405
2018-10-05T08:23:08.266Z,63.5425
2018-10-05T08:24:13.416Z,63.7935
2018-10-05T08:25:18.529Z,63.7935
2018-10-05T08:26:23.680Z,63.0405
2018-10-05T08:27:29.145Z,63.7935
2018-10-05T08:28:33.995Z,64.0445
2018-10-05T08:29:39.149Z,65.2177
2018-10-05T08:30:44.901Z,64.2956
2018-10-05T08:31:50.266Z,64.2956
2018-10-05T08:32:55.176Z,64.5466
2018-10-05T08:34:01.092Z,64.0445
2018-10-05T08:35:06.462Z,65.0486
2018-10-05T08:36:11.386Z,64.7976
2018-10-05T08:37:16.643Z,64.0445
2018-10-05T08:38:21.495Z,64.2956
2018-10-05T08:39:41.381Z,64.7976
2018-10-05T08:40:46.789Z,64.5466
2018-10-05T08:41:52.331Z,65.0486
2018-10-05T08:42:57.776Z,64.2956
2018-10-05T08:44:02.933Z,65.2177
2018-10-05T08:45:08.556Z,65.0486
2018-10-05T08:46:13.755Z,64.7976
2018-10-05T08:47:19.519Z,64.5466
2018-10-05T08:49:45.315Z,64.5466
2018-10-05T08:50:50.181Z,64.0445
2018-10-05T08:51:56.566Z,65.0486
2018-10-05T08:53:02.294Z,64.5466
2018-10-05T08:54:07.481Z,64.5466
2018-10-05T08:55:13.194Z,65.2177
2018-10-05T08:56:18.623Z,65.2177
2018-10-05T08:57:23.821Z,64.2956
2018-10-05T08:58:28.797Z,65.2177
2018-10-05T08:59:34.231Z,65.0486
2018-10-05T09:00:39.660Z,65.2177
2018-10-05T09:01:44.561Z,65.4687
2018-10-05T09:02:50.006Z,64.7976
2018-10-05T09:03:55.759Z,65.9708
2018-10-05T09:05:01.187Z,65.7198
2018-10-05T09:06:06.619Z,65.4687
2018-10-05T09:07:12.083Z,65.9708
2018-10-05T09:08:17.512Z,65.9708
2018-10-05T09:09:22.968Z,65.4687
2018-10-05T09:10:28.558Z,65.9708
2018-10-05T09:11:32.867Z,65.2177
2018-10-05T09:12:38.329Z,65.4687
2018-10-05T09:13:43.536Z,66.7238
2018-10-05T09:14:48.961Z,66.7238
2018-10-05T09:15:54.186Z,66.4728
2018-10-05T09:16:59.629Z,65.9708
2018-10-05T09:18:05.309Z,66.4728
2018-10-05T09:19:11.200Z,66.4728
2018-10-05T09:20:16.691Z,66.4728
2018-10-05T09:21:22.117Z,67.395
2018-10-05T09:22:42.004Z,67.2285
2018-10-05T09:23:47.476Z,67.395
2018-10-05T09:24:52.624Z,67.897
2018-10-05T09:25:58.086Z,67.897
2018-10-05T09:27:03.269Z,68.6527
2018-10-05T09:28:08.488Z,68.1507
2018-10-05T09:29:14.148Z,67.646
2018-10-05T09:30:19.304Z,68.6527
2018-10-05T09:31:24.520Z,68.4017
2018-10-05T09:32:29.948Z,68.6527
2018-10-05T09:33:35.095Z,68.4017
2018-10-05T09:34:40.378Z,69.1548
2018-10-05T09:35:45.334Z,69.6568
2018-10-05T09:36:50.456Z,70.328
2018-10-05T09:37:56.361Z,70.328
2018-10-05T09:39:01.664Z,70.077
2018-10-05T09:40:06.492Z,70.83
2018-10-05T09:41:10.888Z,70.83
2018-10-05T09:42:16.343Z,70.579
2018-10-05T09:43:21.555Z,71.2501
2018-10-05T09:44:27.022Z,71.2501
2018-10-05T09:45:32.824Z,71.2501
2018-10-05T09:46:38.179Z,70.9991
2018-10-05T09:47:43.418Z,70.9991
2018-10-05T09:48:49.123Z,71.2501
2018-10-05T09:49:53.989Z,72.0032
2018-10-05T09:50:59.339Z,72.1723
2018-10-05T09:52:04.652Z,71.7522
2018-10-05T09:53:10.220Z,73.179
2018-10-05T09:54:15.134Z,71.5012
2018-10-05T09:55:21.344Z,72.1723
2018-10-05T09:56:26.856Z,72.4233
2018-10-05T09:57:32.129Z,72.4233
2018-10-05T09:58:37.569Z,72.9254
2018-10-05T09:59:43.434Z,73.4301
2018-10-05T10:00:49.493Z,73.9321
2018-10-05T10:01:54.828Z,73.179
2018-10-05T10:03:00.574Z,73.6811
2018-10-05T10:04:05.793Z,72.4233
2018-10-05T10:05:10.938Z,73.4301
2018-10-05T10:06:16.449Z,73.6811
2018-10-05T10:07:21.658Z,73.6811
2018-10-05T10:08:27.041Z,74.3522
2018-10-05T10:09:32.898Z,73.4301
2018-10-05T10:10:37.816Z,73.179
2018-10-05T10:11:42.678Z,73.9321
2018-10-05T10:12:48.475Z,73.9321
2018-10-05T10:13:53.907Z,74.1831
2018-10-05T10:14:59.082Z,74.6032
2018-10-05T10:16:03.776Z,74.1831
2018-10-05T10:17:09.244Z,74.6032
2018-10-05T10:18:14.398Z,75.3589
2018-10-05T10:19:20.271Z,75.1053
2018-10-05T10:20:24.844Z,74.8543
2018-10-05T10:21:30.726Z,75.61
2018-10-05T10:22:35.655Z,74.8543
2018-10-05T10:23:40.966Z,75.861
2018-10-05T10:24:46.516Z,75.61
2018-10-05T10:25:52.029Z,76.112
2018-10-05T10:26:56.963Z,75.3589
2018-10-05T10:28:03.252Z,76.363
2018-10-05T10:29:08.889Z,75.3589
2018-10-05T10:30:14.399Z,76.363
2018-10-05T10:31:19.498Z,76.363
2018-10-05T10:32:24.926Z,76.7831
2018-10-05T10:33:30.361Z,76.112
2018-10-05T10:34:36.555Z,77.0342
2018-10-05T10:35:41.873Z,76.112
2018-10-05T10:36:47.656Z,77.5389
2018-10-05T10:37:52.657Z,77.5389
2018-10-05T10:38:57.790Z,77.0342
2018-10-05T10:40:03.873Z,76.7831
2018-10-05T10:41:08.208Z,77.2852
2018-10-05T10:42:13.091Z,76.5321
2018-10-05T10:43:18.503Z,77.5389
2018-10-05T10:44:24.410Z,77.5389
2018-10-05T10:45:29.727Z,77.0342
2018-10-05T10:46:35.236Z,77.5389
2018-10-05T10:47:40.418Z,77.5389
2018-10-05T10:48:46.180Z,78.2919
2018-10-05T10:49:51.337Z,77.5389
2018-10-05T10:50:56.793Z,78.7966
2018-10-05T10:52:02.107Z,78.5456
2018-10-05T10:53:07.162Z,79.4678
2018-10-05T10:54:13.555Z,79.9698
2018-10-05T10:55:18.968Z,78.9631
2018-10-05T10:56:24.615Z,78.7966
2018-10-05T10:57:30.776Z,79.2141
2018-10-05T10:58:35.389Z,78.5456
2018-10-05T10:59:40.543Z,79.2141
2018-10-05T11:00:46.353Z,79.7188
2018-10-05T11:01:52.140Z,78.7966
2018-10-05T11:02:57.038Z,79.7188
2018-10-05T11:04:03.242Z,79.9698
2018-10-05T11:05:08.853Z,79.7188
2018-10-05T11:06:13.794Z,80.2208
2018-10-05T11:07:19.478Z,80.2208
2018-10-05T11:08:24.520Z,80.9765
2018-10-05T11:09:30.254Z,79.9698
2018-10-05T11:10:35.720Z,79.9698
2018-10-05T11:11:40.646Z,80.7255
2018-10-05T11:12:46.195Z,80.9765
2018-10-05T11:13:51.070Z,80.9765
2018-10-05T11:14:56.502Z,81.2275
2018-10-05T11:16:01.769Z,80.9765
2018-10-05T11:17:07.041Z,80.9765
2018-10-05T11:18:12.696Z,81.2275
2018-10-05T11:19:17.875Z,81.3966
2018-10-05T11:20:23.173Z,81.3966
2018-10-05T11:21:28.963Z,81.2275
2018-10-05T11:22:34.446Z,82.6544
2018-10-05T11:23:39.896Z,82.1523
2018-10-05T11:24:45.692Z,82.4034
2018-10-05T11:25:51.129Z,82.8235
2018-10-05T11:26:56.647Z,83.5792
2018-10-05T11:28:01.755Z,82.6544
2018-10-05T11:29:06.839Z,83.0745
2018-10-05T11:30:12.282Z,82.6544
2018-10-05T11:31:17.823Z,83.5792
2018-10-05T11:32:23.278Z,83.8302
2018-10-05T11:33:28.924Z,83.8302
2018-10-05T11:34:34.062Z,85.0034
2018-10-05T11:35:39.259Z,84.2504
2018-10-05T11:36:45.178Z,85.0034
2018-10-05T11:37:50.078Z,84.2504
2018-10-05T11:38:55.231Z,83.9967
2018-10-05T11:40:01.093Z,84.2504
2018-10-05T11:41:06.240Z,84.5014
2018-10-05T11:42:11.396Z,84.5014
2018-10-05T11:43:16.947Z,85.7591
2018-10-05T11:44:21.810Z,86.0128
2018-10-05T11:45:27.454Z,85.5081
2018-10-05T11:46:33.746Z,85.5081
2018-10-05T11:47:38.594Z,85.5081
2018-10-05T11:48:43.933Z,85.7591
2018-10-05T11:49:48.873Z,86.0128
2018-10-05T11:50:53.736Z,86.0128
2018-10-05T11:51:59.742Z,86.8504
2018-10-05T11:53:04.946Z,86.4303
2018-10-05T11:54:10.109Z,86.6839
2018-10-05T11:55:15.332Z,86.2638
2018-10-05T11:56:20.826Z,86.6839
2018-10-05T11:57:41.317Z,86.6839
2018-10-05T11:58:46.770Z,86.6839
2018-10-05T11:59:52.813Z,86.8504
2018-10-05T12:00:58.142Z,87.3551
2018-10-05T12:02:03.330Z,88.1108
2018-10-05T12:03:07.910Z,88.1108
2018-10-05T12:04:13.369Z,87.6061
2018-10-05T12:05:19.110Z,88.1108
2018-10-05T12:06:24.724Z,88.3618
2018-10-05T12:07:45.060Z,87.6061
2018-10-05T12:08:50.217Z,88.1108
2018-10-05T12:09:55.717Z,88.6128
2018-10-05T12:11:01.203Z,87.8598
2018-10-05T12:12:05.501Z,88.6128
2018-10-05T12:13:10.614Z,88.7819
2018-10-05T12:14:15.502Z,88.7819
2018-10-05T12:15:20.667Z,89.0329
2018-10-05T12:16:25.940Z,89.7887
2018-10-05T12:17:30.812Z,90.2933
2018-10-05T12:18:36.353Z,89.2866
2018-10-05T12:19:41.887Z,89.5376
2018-10-05T12:20:47.604Z,89.2866
2018-10-05T12:21:53.349Z,89.5376
2018-10-05T12:22:58.797Z,90.2933
2018-10-05T12:24:04.259Z,89.7887
2018-10-05T12:25:09.685Z,89.7887
2018-10-05T12:26:15.188Z,89.7887
2018-10-05T12:27:20.383Z,90.5443
2018-10-05T12:28:25.539Z,90.0423
2018-10-05T12:29:31.072Z,90.5443
2018-10-05T12:30:36.864Z,90.798
2018-10-05T12:31:42.314Z,90.798
2018-10-05T12:32:47.466Z,90.0423
2018-10-05T12:33:53.148Z,91.9738
2018-10-05T12:34:58.291Z,91.4692
2018-10-05T12:36:04.124Z,91.2181
2018-10-05T12:37:09.656Z,91.2181
2018-10-05T12:38:14.573Z,91.049
2018-10-05T12:39:19.157Z,91.2181
2018-10-05T12:40:24.273Z,91.7202
2018-10-05T12:41:29.756Z,91.4692
2018-10-05T12:42:34.884Z,92.9806
2018-10-05T12:43:39.467Z,91.049
2018-10-05T12:44:44.995Z,91.9738
2018-10-05T12:45:50.159Z,91.9738
2018-10-05T12:46:55.300Z,91.9738
2018-10-05T12:48:00.199Z,92.4759
2018-10-05T12:49:05.770Z,92.9806
2018-10-05T12:50:10.840Z,92.7296
2018-10-05T12:51:15.582Z,92.7296
2018-10-05T12:52:21.443Z,92.7296
2018-10-05T12:53:26.597Z,93.4853
2018-10-05T12:54:32.186Z,92.9806
2018-10-05T12:55:37.123Z,93.6517
2018-10-05T12:56:42.021Z,93.4853
2018-10-05T12:57:47.563Z,93.6517
2018-10-05T12:58:52.760Z,93.4853
2018-10-05T12:59:57.989Z,92.9806
2018-10-05T13:01:03.601Z,94.6611
2018-10-05T13:02:08.743Z,94.4074
2018-10-05T13:03:13.945Z,94.1564
2018-10-05T13:04:19.643Z,94.4074
2018-10-05T13:05:25.219Z,93.9054
2018-10-05T13:06:30.812Z,94.6611
2018-10-05T13:07:36.107Z,95.1658
2018-10-05T13:08:41.415Z,94.9121
2018-10-05T13:09:47.151Z,95.1658
2018-10-05T13:10:52.079Z,95.9215
2018-10-05T13:11:57.251Z,94.6611
2018-10-05T13:13:02.743Z,96.0879
2018-10-05T13:14:07.895Z,95.4168
2018-10-05T13:15:13.348Z,95.1658
2018-10-05T13:16:18.742Z,96.5926
2018-10-05T13:17:24.010Z,95.6678
2018-10-05T13:18:29.488Z,96.0879